Time;durP1;ratioP1;P1;durP2;ratioP2;P2;SDS_P1;SDS_P2;PMS_P1;PMS_P2;Temp;Humidity;BMP_temperature;BMP_pressure;BME280_temperature;BME280_humidity;BME280_pressure;Samples;Min_cycle;Max_cycle;Signal;HPM_P1;HPM_P2
2023/01/25 00:02:22;;;;;;;30.88;23.92;;;;;;;-0.54;100.00;103663.69;5001018;28;20180;-46
2023/01/25 00:04:47;;;;;;;38.28;25.25;;;;;;;-0.58;100.00;103664.34;4999733;28;20172;-43
2023/01/25 00:07:13;;;;;;;31.98;23.90;;;;;;;-0.53;100.00;103661.94;5001175;28;20647;-44
2023/01/25 00:09:38;;;;;;;32.25;24.13;;;;;;;-0.53;100.00;103677.75;4998205;28;20805;-44
2023/01/25 00:12:04;;;;;;;32.00;23.50;;;;;;;-0.52;100.00;103666.41;5003979;28;20172;-45
2023/01/25 00:14:29;;;;;;;34.13;25.05;;;;;;;-0.50;100.00;103660.41;4998380;28;20498;-43
2023/01/25 00:16:55;;;;;;;35.38;26.77;;;;;;;-0.48;100.00;103650.84;4999886;28;20216;-45
2023/01/25 00:19:21;;;;;;;37.85;25.30;;;;;;;-0.68;100.00;103647.16;4997288;28;20571;-44
2023/01/25 00:21:46;;;;;;;38.53;27.00;;;;;;;-0.61;100.00;103658.91;5006176;28;20181;-43
2023/01/25 00:24:13;;;;;;;36.92;26.75;;;;;;;-0.62;100.00;103659.72;5006881;28;20176;-43
2023/01/25 00:26:38;;;;;;;39.67;26.60;;;;;;;-0.58;100.00;103647.66;4997734;28;20205;-43
2023/01/25 00:29:10;;;;;;;40.08;28.20;;;;;;;-0.59;100.00;103644.13;5002854;28;20165;-44
2023/01/25 00:32:12;;;;;;;40.72;29.05;;;;;;;-0.58;100.00;103647.66;4997798;28;20216;-46
2023/01/25 00:34:45;;;;;;;40.65;29.00;;;;;;;-0.62;100.00;103636.03;5001395;28;20185;-45
2023/01/25 00:37:17;;;;;;;43.03;29.30;;;;;;;-0.60;100.00;103639.66;4996776;28;20204;-45
2023/01/25 00:39:42;;;;;;;41.15;29.70;;;;;;;-0.63;100.00;103632.50;4999830;28;20208;-44
2023/01/25 00:42:13;;;;;;;45.13;29.88;;;;;;;-0.68;100.00;103636.63;5002710;28;20207;-46
2023/01/25 00:44:39;;;;;;;41.70;30.25;;;;;;;-0.68;100.00;103636.63;4995698;28;20539;-47
2023/01/25 00:47:05;;;;;;;41.67;29.50;;;;;;;-0.61;100.00;103629.97;4997574;28;20216;-46
2023/01/25 00:49:33;;;;;;;43.17;28.85;;;;;;;-0.62;100.00;103631.66;4989941;28;20184;-46
2023/01/25 00:51:59;;;;;;;45.63;31.20;;;;;;;-0.57;100.00;103624.00;5000464;28;20652;-45
2023/01/25 00:54:25;;;;;;;45.83;30.23;;;;;;;-0.55;100.00;103625.00;4996344;28;20232;-44
2023/01/25 00:56:52;;;;;;;45.38;31.17;;;;;;;-0.52;100.00;103609.38;5004871;28;20687;-44
2023/01/25 00:59:18;;;;;;;48.25;30.75;;;;;;;-0.51;100.00;103618.16;5006932;28;20197;-45
2023/01/25 01:01:44;;;;;;;43.53;29.45;;;;;;;-0.50;100.00;103606.81;5001879;28;20192;-45
2023/01/25 01:04:10;;;;;;;43.50;30.88;;;;;;;-0.49;100.00;103614.78;5000659;28;20601;-46
2023/01/25 01:06:58;;;;;;;42.05;31.83;;;;;;;-0.64;100.00;103616.63;4997431;28;20219;-45
2023/01/25 01:09:42;;;;;;;44.08;31.48;;;;;;;-0.55;100.00;103608.28;4998288;28;20739;-44
2023/01/25 01:12:08;;;;;;;40.72;31.13;;;;;;;-0.52;100.00;103609.38;4998303;28;20176;-43
2023/01/25 01:14:34;;;;;;;46.10;33.17;;;;;;;-0.50;100.00;103598.94;4998951;28;20549;-45
2023/01/25 01:16:59;;;;;;;45.55;33.28;;;;;;;-0.56;100.00;103604.75;4997850;28;20607;-45
2023/01/25 01:19:26;;;;;;;50.10;34.03;;;;;;;-0.45;100.00;103603.59;4994065;28;20297;-46
2023/01/25 01:21:51;;;;;;;48.53;35.08;;;;;;;-0.58;100.00;103601.16;5002448;28;20263;-46
2023/01/25 01:24:17;;;;;;;46.30;33.80;;;;;;;-0.56;100.00;103593.34;4999696;28;20279;-45
2023/01/25 01:26:42;;;;;;;46.15;34.38;;;;;;;-0.60;100.00;103583.47;5004212;28;20255;-45
2023/01/25 01:29:08;;;;;;;43.72;34.28;;;;;;;-0.58;100.00;103580.09;4999033;28;20223;-43
2023/01/25 01:31:34;;;;;;;45.30;35.55;;;;;;;-0.56;100.00;103588.06;4998228;28;20188;-44
2023/01/25 01:34:12;;;;;;;45.38;35.42;;;;;;;-0.67;100.00;103580.50;5011909;28;20651;-46
2023/01/25 01:36:37;;;;;;;48.67;35.65;;;;;;;-0.66;100.00;103581.41;4998345;28;20482;-45
2023/01/25 01:39:03;;;;;;;45.13;33.25;;;;;;;-0.74;100.00;103590.66;4998407;28;20536;-45
2023/01/25 01:41:29;;;;;;;44.35;33.70;;;;;;;-0.70;100.00;103589.97;4997375;28;20176;-45
2023/01/25 01:43:56;;;;;;;43.53;35.15;;;;;;;-0.71;100.00;103590.78;4994967;28;20212;-45
2023/01/25 01:46:24;;;;;;;40.10;31.50;;;;;;;-0.61;100.00;103579.94;5004222;28;20705;-44
2023/01/25 01:49:12;;;;;;;39.03;30.27;;;;;;;-0.74;100.00;103588.00;4997221;28;20185;-44
2023/01/25 01:52:00;;;;;;;40.92;30.55;;;;;;;-0.62;100.00;103570.22;4999911;28;20543;-44
2023/01/25 01:54:41;;;;;;;41.08;30.10;;;;;;;-0.64;100.00;103572.75;5004067;28;20195;-46
2023/01/25 01:57:30;;;;;;;39.83;29.83;;;;;;;-0.66;100.00;103566.53;5001434;28;20228;-45
2023/01/25 02:00:15;;;;;;;39.38;30.08;;;;;;;-0.69;100.00;103573.34;5001024;28;20210;-45
2023/01/25 02:02:42;;;;;;;40.83;29.63;;;;;;;-0.72;100.00;103578.44;5001188;28;20205;-45
2023/01/25 02:05:34;;;;;;;39.47;30.35;;;;;;;-0.66;100.00;103584.03;4992956;28;20580;-46
2023/01/25 02:08:02;;;;;;;43.70;32.22;;;;;;;-0.57;100.00;103586.25;4972311;28;20229;-45
2023/01/25 02:10:29;;;;;;;38.38;28.23;;;;;;;-0.80;100.00;103571.91;5005231;28;20183;-47
2023/01/25 02:12:57;;;;;;;41.05;30.05;;;;;;;-0.68;100.00;103572.50;4999346;28;20180;-45
2023/01/25 02:15:26;;;;;;;37.72;29.83;;;;;;;-0.58;100.00;103566.91;5002457;28;20212;-45
2023/01/25 02:17:52;;;;;;;38.80;30.35;;;;;;;-0.68;100.00;103567.25;4997646;28;20682;-44
2023/01/25 02:20:27;;;;;;;38.13;28.20;;;;;;;-0.57;100.00;103573.97;5002452;28;20279;-47
2023/01/25 02:22:58;;;;;;;37.17;28.73;;;;;;;-0.61;100.00;103574.66;5002227;28;20180;-46
2023/01/25 02:25:24;;;;;;;37.92;29.35;;;;;;;-0.53;100.00;103573.31;5003067;28;20664;-45
2023/01/25 02:27:54;;;;;;;35.25;27.60;;;;;;;-0.59;100.00;103566.81;5002693;28;20364;-44
2023/01/25 02:30:20;;;;;;;40.53;29.63;;;;;;;-0.55;100.00;103563.53;5000326;28;20210;-45
2023/01/25 02:32:46;;;;;;;39.10;30.25;;;;;;;-0.59;100.00;103566.81;4996649;28;20200;-45
2023/01/25 02:35:36;;;;;;;38.92;30.08;;;;;;;-0.76;100.00;103563.34;4998989;28;20197;-45
2023/01/25 02:38:02;;;;;;;40.63;29.88;;;;;;;-0.74;100.00;103574.84;5004608;28;20205;-44
2023/01/25 02:40:31;;;;;;;42.55;30.35;;;;;;;-0.86;100.00;103572.47;5003126;28;20320;-46
2023/01/25 02:42:57;;;;;;;40.78;29.60;;;;;;;-0.81;100.00;103565.69;5001873;28;20272;-44
2023/01/25 02:45:27;;;;;;;42.00;29.75;;;;;;;-0.93;100.00;103552.81;5004295;28;20298;-45
2023/01/25 02:47:52;;;;;;;41.10;29.70;;;;;;;-0.87;100.00;103545.25;5002819;28;20291;-44
2023/01/25 02:50:18;;;;;;;41.85;29.73;;;;;;;-0.96;100.00;103554.34;5002095;28;20733;-45
2023/01/25 02:52:45;;;;;;;45.05;30.88;;;;;;;-1.08;100.00;103549.34;5003625;28;20189;-45
2023/01/25 02:55:11;;;;;;;43.60;30.98;;;;;;;-1.09;100.00;103545.84;5003303;28;20658;-45
2023/01/25 02:57:39;;;;;;;45.25;30.75;;;;;;;-1.08;100.00;103545.00;4998182;28;20204;-46
2023/01/25 03:00:05;;;;;;;48.25;32.05;;;;;;;-1.00;100.00;103547.16;5004763;28;20561;-45
2023/01/25 03:02:31;;;;;;;45.28;31.02;;;;;;;-0.93;100.00;103544.91;5003806;28;20254;-44
2023/01/25 03:04:57;;;;;;;46.63;31.58;;;;;;;-0.94;100.00;103548.38;5004132;28;20625;-46
2023/01/25 03:07:23;;;;;;;47.92;30.50;;;;;;;-1.01;100.00;103538.34;5008050;28;20238;-44
2023/01/25 03:09:48;;;;;;;50.47;31.85;;;;;;;-1.01;100.00;103535.69;5002661;28;20207;-43
2023/01/25 03:12:14;;;;;;;42.67;30.08;;;;;;;-1.03;100.00;103532.09;5003109;28;20264;-45
2023/01/25 03:14:43;;;;;;;41.67;28.67;;;;;;;-0.96;100.00;103539.50;5001751;28;20287;-46
2023/01/25 03:17:09;;;;;;;39.97;28.67;;;;;;;-1.00;100.00;103545.41;5000089;28;20287;-45
2023/01/25 03:19:35;;;;;;;43.53;28.42;;;;;;;-1.04;100.00;103539.06;5007513;28;20281;-45
2023/01/25 03:22:01;;;;;;;43.83;29.00;;;;;;;-1.10;100.00;103524.69;5005114;28;20221;-44
2023/01/25 03:24:27;;;;;;;44.00;29.08;;;;;;;-1.14;100.00;103522.72;4997695;28;20199;-45
2023/01/25 03:27:12;;;;;;;40.55;29.00;;;;;;;-1.00;100.00;103532.25;4999152;28;20209;-45
2023/01/25 03:29:47;;;;;;;44.22;28.95;;;;;;;-0.90;100.00;103529.28;5006485;28;20184;-46
2023/01/25 03:32:18;;;;;;;46.10;29.02;;;;;;;-1.00;100.00;103534.00;5003376;28;20309;-45
2023/01/25 03:34:43;;;;;;;46.58;29.00;;;;;;;-0.99;100.00;103522.63;5014930;22;20500;-41
2023/01/25 03:37:09;;;;;;;43.50;28.52;;;;;;;-1.03;100.00;103511.03;5031076;28;20592;-41
2023/01/25 03:39:36;;;;;;;45.22;28.98;;;;;;;-1.12;100.00;103514.09;5019203;28;20205;-38
2023/01/25 03:42:02;;;;;;;44.20;28.83;;;;;;;-1.07;100.00;103509.09;5011254;28;20563;-41
2023/01/25 03:44:27;;;;;;;46.00;29.50;;;;;;;-1.15;100.00;103511.31;5012698;28;20183;-40
2023/01/25 03:46:53;;;;;;;40.67;27.75;;;;;;;-1.03;100.00;103508.41;5011051;28;20200;-40
2023/01/25 03:49:19;;;;;;;42.00;27.50;;;;;;;-0.97;100.00;103498.19;5010766;28;20176;-40
2023/01/25 03:51:45;;;;;;;43.58;27.88;;;;;;;-1.10;100.00;103498.38;5012297;28;20177;-42
2023/01/25 03:54:11;;;;;;;40.03;26.80;;;;;;;-1.06;100.00;103492.47;5010827;28;20173;-40
2023/01/25 03:56:37;;;;;;;43.33;25.70;;;;;;;-1.09;100.00;103493.22;5012391;28;20203;-44
2023/01/25 03:59:09;;;;;;;39.72;26.33;;;;;;;-1.13;100.00;103477.19;5010858;28;20266;-42
2023/01/25 04:01:35;;;;;;;41.42;27.48;;;;;;;-1.12;100.00;103474.63;5010652;28;20280;-40
2023/01/25 04:04:01;;;;;;;40.72;27.95;;;;;;;-1.16;100.00;103467.41;5010835;28;20245;-39
2023/01/25 04:06:27;;;;;;;40.42;27.08;;;;;;;-1.09;100.00;103464.28;5010333;28;20200;-41
2023/01/25 04:08:52;;;;;;;42.15;27.75;;;;;;;-1.13;100.00;103471.94;5010450;28;20734;-40
2023/01/25 04:11:21;;;;;;;39.58;27.00;;;;;;;-1.08;100.00;103462.53;5010625;28;20559;-39
2023/01/25 04:13:47;;;;;;;39.83;26.83;;;;;;;-1.02;100.00;103465.50;5009880;28;20636;-39
2023/01/25 04:16:15;;;;;;;39.33;26.35;;;;;;;-1.04;100.00;103451.34;5010077;28;20201;-42
2023/01/25 04:18:59;;;;;;;39.85;26.65;;;;;;;-1.11;100.00;103443.97;5011383;28;20231;-41
2023/01/25 04:21:26;;;;;;;41.13;26.15;;;;;;;-1.05;100.00;103450.47;5010309;28;20191;-39
2023/01/25 04:23:51;;;;;;;39.17;26.23;;;;;;;-1.16;100.00;103440.19;5011073;28;20169;-41
2023/01/25 04:26:17;;;;;;;39.83;27.08;;;;;;;-1.18;100.00;103437.50;5011428;28;20682;-41
2023/01/25 04:28:49;;;;;;;39.38;26.98;;;;;;;-1.05;100.00;103436.38;5026863;28;20173;-41
2023/01/25 04:31:15;;;;;;;37.10;27.10;;;;;;;-1.26;100.00;103431.81;5011725;28;20192;-39
2023/01/25 04:33:40;;;;;;;41.83;27.00;;;;;;;-1.18;100.00;103431.31;5011529;28;20169;-40
2023/01/25 04:36:07;;;;;;;38.33;25.67;;;;;;;-1.18;100.00;103420.78;5010267;28;20215;-39
2023/01/25 04:38:33;;;;;;;36.88;25.10;;;;;;;-1.15;100.00;103431.47;5026247;28;20172;-40
2023/01/25 04:40:59;;;;;;;37.55;26.13;;;;;;;-1.08;100.00;103430.97;5010071;28;20180;-39
2023/01/25 04:43:25;;;;;;;37.22;25.60;;;;;;;-1.11;100.00;103423.84;5011427;28;20578;-41
2023/01/25 04:45:55;;;;;;;37.03;25.10;;;;;;;-1.02;100.00;103423.41;5009788;28;20243;-40
2023/01/25 04:48:27;;;;;;;41.30;25.60;;;;;;;-1.01;100.00;103425.19;5010129;28;20195;-41
2023/01/25 04:50:57;;;;;;;39.95;25.45;;;;;;;-1.00;100.00;103428.75;5026435;28;20169;-43
2023/01/25 04:53:23;;;;;;;32.40;23.17;;;;;;;-0.98;100.00;103414.84;5010355;28;20212;-41
2023/01/25 04:55:50;;;;;;;34.80;24.00;;;;;;;-0.92;100.00;103425.69;5010044;28;20185;-41
2023/01/25 04:58:16;;;;;;;34.95;23.95;;;;;;;-1.07;100.00;103427.53;5006295;28;20204;-41
2023/01/25 05:00:42;;;;;;;34.00;23.98;;;;;;;-1.09;100.00;103423.91;5006631;28;20193;-42
2023/01/25 05:03:09;;;;;;;31.70;23.30;;;;;;;-1.03;100.00;103421.56;5017448;28;20192;-43
2023/01/25 05:05:35;;;;;;;31.42;22.67;;;;;;;-0.98;100.00;103425.38;5009492;28;20200;-42
2023/01/25 05:08:05;;;;;;;32.63;22.50;;;;;;;-1.15;100.00;103431.47;5009845;28;20209;-44
2023/01/25 05:10:31;;;;;;;30.63;21.48;;;;;;;-1.15;100.00;103423.59;5010691;28;20211;-43
2023/01/25 05:13:19;;;;;;;34.88;22.13;;;;;;;-1.18;100.00;103420.78;4991713;28;20193;-43
2023/01/25 05:15:47;;;;;;;32.60;21.08;;;;;;;-1.16;100.00;103427.03;5009681;28;20564;-42
2023/01/25 05:18:12;;;;;;;31.50;22.30;;;;;;;-1.27;100.00;103419.50;5009274;28;20176;-40
2023/01/25 05:20:38;;;;;;;30.55;22.05;;;;;;;-1.20;100.00;103425.06;5006178;28;20209;-43
2023/01/25 05:23:04;;;;;;;32.88;22.80;;;;;;;-1.15;100.00;103427.13;4997471;28;20177;-39
2023/01/25 05:28:21;;;;;;;31.88;21.83;;;;;;;-1.25;100.00;103422.19;5009663;28;20180;-40
2023/01/25 05:31:15;;;;;;;32.00;21.98;;;;;;;-1.30;100.00;103426.31;4988880;28;20209;-39
2023/01/25 05:33:41;;;;;;;30.95;21.10;;;;;;;-1.33;100.00;103420.91;4990087;28;20166;-41
2023/01/25 05:36:07;;;;;;;31.38;22.45;;;;;;;-1.22;100.00;103427.63;4991014;28;20675;-40
2023/01/25 05:38:35;;;;;;;33.45;22.42;;;;;;;-1.23;100.00;103414.41;5009479;28;20184;-41
2023/01/25 05:41:01;;;;;;;29.90;20.50;;;;;;;-1.13;100.00;103411.44;5009411;28;20192;-40
2023/01/25 05:43:27;;;;;;;32.95;21.98;;;;;;;-1.22;100.00;103417.13;5009116;28;20565;-41
2023/01/25 05:45:52;;;;;;;33.22;23.13;;;;;;;-1.26;100.00;103408.16;5010788;28;20169;-43
2023/01/25 05:48:18;;;;;;;29.98;22.40;;;;;;;-1.32;100.00;103404.28;5025525;28;20199;-40
2023/01/25 05:50:44;;;;;;;31.52;22.85;;;;;;;-1.36;100.00;103405.84;5010520;28;20176;-42
2023/01/25 05:53:14;;;;;;;32.75;21.45;;;;;;;-1.28;100.00;103407.16;5025755;28;20179;-43
2023/01/25 05:55:40;;;;;;;33.25;21.52;;;;;;;-1.38;100.00;103401.34;5013312;28;20165;-39
2023/01/25 05:58:08;;;;;;;29.60;20.50;;;;;;;-1.25;100.00;103395.88;5013275;28;20276;-41
2023/01/25 06:00:34;;;;;;;30.80;21.27;;;;;;;-1.47;100.00;103393.88;5013029;28;20207;-39
2023/01/25 06:03:01;;;;;;;31.10;21.25;;;;;;;-1.46;100.00;103408.84;5027044;28;20271;-40
2023/01/25 06:05:28;;;;;;;30.85;20.30;;;;;;;-1.37;100.00;103404.06;5013106;28;20188;-41
2023/01/25 06:07:53;;;;;;;34.20;22.05;;;;;;;-1.49;100.00;103403.41;5014693;28;20591;-41
2023/01/25 06:10:21;;;;;;;35.75;22.65;;;;;;;-1.49;100.00;103390.25;5016539;28;20180;-41
2023/01/25 06:12:48;;;;;;;33.92;22.27;;;;;;;-1.55;100.00;103387.31;5013458;28;20243;-41
2023/01/25 06:15:14;;;;;;;33.90;21.95;;;;;;;-1.47;100.00;103389.50;5014144;28;20185;-42
2023/01/25 06:17:40;;;;;;;33.03;22.40;;;;;;;-1.56;100.00;103389.03;5013049;28;20483;-42
2023/01/25 06:20:27;;;;;;;34.20;22.65;;;;;;;-1.55;100.00;103387.31;5012560;28;20208;-39
2023/01/25 06:23:04;;;;;;;33.90;22.35;;;;;;;-1.52;100.00;103374.34;5014317;28;20184;-42
2023/01/25 06:25:29;;;;;;;30.90;21.27;;;;;;;-1.48;100.00;103381.56;5014231;28;20697;-44
2023/01/25 06:27:55;;;;;;;35.28;22.58;;;;;;;-1.45;100.00;103376.47;5019264;28;20197;-42
2023/01/25 06:30:20;;;;;;;37.15;23.52;;;;;;;-1.46;100.00;103382.56;5013725;28;20639;-42
2023/01/25 06:32:46;;;;;;;35.45;22.52;;;;;;;-1.41;100.00;103377.53;5013916;28;20227;-42
2023/01/25 06:35:11;;;;;;;35.40;22.45;;;;;;;-1.28;100.00;103382.59;5013813;28;20239;-43
2023/01/25 06:37:37;;;;;;;35.58;23.58;;;;;;;-1.42;100.00;103379.25;5012562;28;20638;-41
2023/01/25 06:40:03;;;;;;;34.53;21.55;;;;;;;-1.32;100.00;103385.88;5013264;28;20218;-43
2023/01/25 06:42:29;;;;;;;39.45;24.13;;;;;;;-1.33;100.00;103366.59;5013842;28;20184;-42
2023/01/25 06:44:54;;;;;;;33.67;22.58;;;;;;;-1.30;100.00;103374.63;5013582;28;20556;-40
2023/01/25 06:47:20;;;;;;;36.20;22.08;;;;;;;-1.31;100.00;103378.09;5013704;28;20258;-44
2023/01/25 06:49:45;;;;;;;33.33;22.45;;;;;;;-1.33;100.00;103377.09;5013755;28;20173;-42
2023/01/25 06:52:11;;;;;;;37.00;23.27;;;;;;;-1.37;100.00;103380.41;5013424;28;20180;-41
2023/01/25 06:54:36;;;;;;;39.00;22.95;;;;;;;-1.35;100.00;103367.34;5013249;28;20228;-43
2023/01/25 06:57:02;;;;;;;38.40;24.58;;;;;;;-1.29;100.00;103368.56;5013342;28;20572;-40
2023/01/25 06:59:28;;;;;;;44.40;25.42;;;;;;;-1.40;100.00;103367.09;5012716;28;20218;-42
2023/01/25 07:01:53;;;;;;;37.13;24.13;;;;;;;-1.28;100.00;103357.19;5013196;28;20339;-44
2023/01/25 07:04:19;;;;;;;41.50;25.40;;;;;;;-1.40;100.00;103359.22;5013158;28;20586;-44
2023/01/25 07:06:44;;;;;;;39.95;24.88;;;;;;;-1.39;100.00;103358.38;5012890;28;20615;-40
2023/01/25 07:09:13;;;;;;;41.00;25.80;;;;;;;-1.50;100.00;103355.19;5013146;28;20161;-43
2023/01/25 07:11:39;;;;;;;40.10;24.35;;;;;;;-1.52;100.00;103356.84;5012827;28;20244;-40
2023/01/25 07:14:05;;;;;;;42.38;26.15;;;;;;;-1.50;100.00;103349.03;5012717;28;20560;-40
2023/01/25 07:16:35;;;;;;;48.35;24.50;;;;;;;-1.46;100.00;103338.75;5012785;28;20203;-41
2023/01/25 07:19:10;;;;;;;46.15;26.98;;;;;;;-1.57;100.00;103333.78;5012585;28;20209;-38
2023/01/25 07:21:35;;;;;;;47.92;26.88;;;;;;;-1.62;100.00;103333.50;5012724;28;20184;-41
2023/01/25 07:24:03;;;;;;;46.83;27.65;;;;;;;-1.57;100.00;103333.78;5012516;28;20213;-38
2023/01/25 07:26:30;;;;;;;46.15;27.08;;;;;;;-1.54;100.00;103332.19;5012352;28;20247;-42
2023/01/25 07:28:57;;;;;;;46.83;26.60;;;;;;;-1.54;100.00;103337.44;5012520;28;20172;-40
2023/01/25 07:31:23;;;;;;;45.47;25.48;;;;;;;-1.62;100.00;103341.38;5012354;28;20598;-42
2023/01/25 07:33:50;;;;;;;40.88;24.27;;;;;;;-1.77;100.00;103332.69;5010635;28;20173;-41
2023/01/25 07:36:16;;;;;;;41.63;24.17;;;;;;;-1.66;100.00;103332.47;5011185;28;20787;-41
2023/01/25 07:38:41;;;;;;;44.63;24.38;;;;;;;-1.77;100.00;103322.19;5010732;28;20263;-41
2023/01/25 07:41:07;;;;;;;39.90;24.65;;;;;;;-1.76;100.00;103318.75;5010859;28;20271;-40
2023/01/25 07:43:32;;;;;;;42.80;25.70;;;;;;;-1.64;100.00;103322.03;5011839;28;20251;-41
2023/01/25 07:46:05;;;;;;;45.17;25.20;;;;;;;-1.73;100.00;103318.91;5009749;28;20753;-42
2023/01/25 07:48:32;;;;;;;46.30;25.95;;;;;;;-1.80;100.00;103333.44;5010673;28;20670;-46
2023/01/25 07:51:11;;;;;;;49.45;26.10;;;;;;;-1.75;100.00;103331.06;5009470;28;20215;-44
2023/01/25 07:53:41;;;;;;;43.45;24.63;;;;;;;-1.82;100.00;103339.44;5011498;28;20184;-40
2023/01/25 07:56:09;;;;;;;41.42;24.23;;;;;;;-1.78;100.00;103336.16;5010854;28;20275;-40
2023/01/25 07:58:35;;;;;;;50.33;26.42;;;;;;;-1.88;100.00;103340.94;5010159;28;20251;-41
2023/01/25 08:01:13;;;;;;;46.78;26.30;;;;;;;-1.79;100.00;103332.66;5010577;28;20176;-39
2023/01/25 08:03:39;;;;;;;50.53;26.63;;;;;;;-1.73;100.00;103318.91;5010764;28;20176;-39
2023/01/25 08:06:05;;;;;;;44.90;24.70;;;;;;;-1.75;100.00;103317.91;5010584;28;20699;-43
2023/01/25 08:08:36;;;;;;;44.47;24.77;;;;;;;-1.89;100.00;103309.31;5010585;28;20272;-42
2023/01/25 08:11:10;;;;;;;37.80;22.67;;;;;;;-1.80;100.00;103317.69;5010103;28;20673;-41
2023/01/25 08:13:35;;;;;;;42.42;24.35;;;;;;;-1.85;100.00;103321.81;5013141;28;20177;-40
2023/01/25 08:16:01;;;;;;;43.70;22.67;;;;;;;-1.83;100.00;103322.78;5009094;28;20288;-40
2023/01/25 08:18:27;;;;;;;44.40;25.08;;;;;;;-1.79;100.00;103326.47;5009478;28;20291;-41
2023/01/25 08:20:52;;;;;;;43.30;23.38;;;;;;;-1.84;100.00;103315.72;5009953;28;20770;-40
2023/01/25 08:23:19;;;;;;;47.00;24.88;;;;;;;-1.83;100.00;103311.38;5010933;28;20185;-41
2023/01/25 08:25:45;;;;;;;47.50;24.95;;;;;;;-1.84;100.00;103301.69;5010196;28;20189;-40
2023/01/25 08:28:11;;;;;;;47.10;24.48;;;;;;;-1.75;100.00;103303.09;5010129;28;20188;-41
2023/01/25 08:30:36;;;;;;;41.80;23.42;;;;;;;-1.76;100.00;103297.72;5009992;28;20562;-42
2023/01/25 08:33:02;;;;;;;42.85;23.33;;;;;;;-1.69;100.00;103310.34;5012467;28;20192;-41
2023/01/25 08:35:27;;;;;;;38.63;21.65;;;;;;;-1.63;100.00;103299.28;5010207;28;20203;-42
2023/01/25 08:37:52;;;;;;;39.78;21.73;;;;;;;-1.64;100.00;103306.28;5011041;28;20279;-41
2023/01/25 08:40:18;;;;;;;43.08;22.77;;;;;;;-1.63;100.00;103299.28;5009998;28;20557;-39
2023/01/25 08:42:43;;;;;;;47.25;23.85;;;;;;;-1.71;100.00;103297.13;5009958;28;20199;-42
2023/01/25 08:45:09;;;;;;;44.53;23.58;;;;;;;-1.50;100.00;103278.06;5010164;28;20173;-41
2023/01/25 08:47:35;;;;;;;43.58;24.23;;;;;;;-1.65;100.00;103275.53;5007672;28;20188;-41
2023/01/25 08:50:00;;;;;;;40.72;24.02;;;;;;;-1.70;100.00;103275.31;5009837;28;20553;-39
2023/01/25 08:52:26;;;;;;;41.53;21.73;;;;;;;-1.67;100.00;103278.06;5010422;28;20189;-40
2023/01/25 08:54:51;;;;;;;39.22;22.83;;;;;;;-1.69;100.00;103277.09;5012600;28;20208;-42
2023/01/25 08:57:17;;;;;;;41.20;21.75;;;;;;;-1.78;100.00;103267.84;5010163;28;20645;-42
2023/01/25 08:59:43;;;;;;;38.53;21.75;;;;;;;-1.66;100.00;103268.50;5008928;28;20251;-40
2023/01/25 09:02:11;;;;;;;36.92;20.98;;;;;;;-1.67;100.00;103270.19;5006216;28;20272;-41
2023/01/25 09:04:37;;;;;;;41.35;21.65;;;;;;;-1.78;100.00;103273.09;5004370;28;20189;-40
2023/01/25 09:07:03;;;;;;;39.25;19.83;;;;;;;-1.76;100.00;103259.22;5005116;28;20990;-39
2023/01/25 09:09:29;;;;;;;35.25;19.73;;;;;;;-1.79;100.00;103261.69;5008846;28;20200;-41
2023/01/25 09:11:55;;;;;;;39.28;20.35;;;;;;;-1.88;100.00;103261.19;5010466;28;20558;-43
2023/01/25 09:14:21;;;;;;;36.83;20.95;;;;;;;-1.89;100.00;103264.66;5010066;28;20616;-41
2023/01/25 09:16:47;;;;;;;36.22;19.15;;;;;;;-1.86;100.00;103254.28;5009573;28;20205;-40
2023/01/25 09:19:13;;;;;;;38.15;20.73;;;;;;;-1.92;100.00;103238.25;5010228;28;20204;-39
2023/01/25 09:21:39;;;;;;;39.67;20.23;;;;;;;-1.92;100.00;103246.13;5009570;28;20178;-40
2023/01/25 09:24:06;;;;;;;38.28;20.17;;;;;;;-1.86;100.00;103241.16;5010805;28;20680;-41
2023/01/25 09:26:39;;;;;;;38.80;18.92;;;;;;;-1.81;100.00;103236.16;5010245;28;20295;-41
2023/01/25 09:29:06;;;;;;;38.50;21.75;;;;;;;-1.66;100.00;103237.84;5006344;28;20180;-42
2023/01/25 09:31:32;;;;;;;38.25;20.50;;;;;;;-1.71;100.00;103234.06;5008774;28;20647;-39
2023/01/25 09:34:08;;;;;;;42.55;20.75;;;;;;;-1.77;100.00;103230.22;5010019;28;20177;-42
2023/01/25 09:39:12;;;;;;;42.05;21.02;;;;;;;-1.79;100.00;103224.91;5024532;28;20258;-46
2023/01/25 09:41:43;;;;;;;35.97;21.40;;;;;;;-1.79;100.00;103227.53;5029022;28;20202;-49
2023/01/25 09:44:45;;;;;;;37.97;20.08;;;;;;;-1.80;100.00;103224.81;5029706;28;20176;-46
2023/01/25 09:47:39;;;;;;;38.72;20.08;;;;;;;-1.74;100.00;103223.41;5029268;28;20211;-46
2023/01/25 09:50:23;;;;;;;42.03;21.27;;;;;;;-1.75;100.00;103228.56;5027937;28;20194;-50
2023/01/25 09:53:11;;;;;;;43.53;21.73;;;;;;;-1.90;100.00;103216.47;5027871;28;20180;-48
2023/01/25 09:55:37;;;;;;;38.40;19.85;;;;;;;-1.81;100.00;103202.00;5025102;28;20184;-46
2023/01/25 09:58:03;;;;;;;41.33;20.77;;;;;;;-1.98;100.00;103198.50;5025209;28;20573;-44
2023/01/25 10:00:36;;;;;;;39.58;20.95;;;;;;;-1.91;100.00;103198.00;5027601;28;20195;-45
2023/01/25 10:03:11;;;;;;;39.92;20.60;;;;;;;-1.90;100.00;103205.97;5031032;28;20189;-45
2023/01/25 10:05:43;;;;;;;43.03;21.90;;;;;;;-1.83;100.00;103201.91;5026882;28;20187;-45
2023/01/25 10:08:13;;;;;;;43.65;21.52;;;;;;;-1.91;100.00;103190.09;5029310;28;20212;-48
2023/01/25 10:10:41;;;;;;;40.72;21.52;;;;;;;-1.92;100.00;103186.59;5027378;28;20182;-44
2023/01/25 10:13:16;;;;;;;46.13;21.80;;;;;;;-1.90;100.00;103178.78;5033465;28;20188;-43
2023/01/25 10:16:02;;;;;;;42.25;21.90;;;;;;;-1.73;100.00;103175.28;5029077;28;20338;-49
2023/01/25 10:18:39;;;;;;;42.25;22.27;;;;;;;-1.79;100.00;103177.59;5029105;28;20521;-48
2023/01/25 10:21:21;;;;;;;46.83;23.77;;;;;;;-1.89;100.00;103170.97;5028279;28;20188;-48
2023/01/25 10:24:02;;;;;;;43.60;21.40;;;;;;;-1.87;100.00;103169.31;5029232;28;20737;-46
2023/01/25 10:26:31;;;;;;;39.67;21.35;;;;;;;-1.78;100.00;103168.88;5043374;28;20291;-49
2023/01/25 10:29:10;;;;;;;39.55;20.65;;;;;;;-1.69;100.00;103155.31;5028588;28;20180;-48
2023/01/25 10:31:43;;;;;;;45.35;21.35;;;;;;;-1.77;100.00;103156.63;5024934;28;20362;-48
2023/01/25 10:34:24;;;;;;;41.78;22.85;;;;;;;-1.80;100.00;103159.13;5029995;28;20172;-48
2023/01/25 10:36:55;;;;;;;39.47;21.75;;;;;;;-1.96;100.00;103147.84;5027530;28;20204;-48
2023/01/25 10:39:21;;;;;;;41.53;21.52;;;;;;;-1.89;100.00;103156.94;5029462;28;20274;-47
2023/01/25 10:41:58;;;;;;;41.78;22.05;;;;;;;-1.80;100.00;103148.63;5031901;28;20268;-47
2023/01/25 10:44:27;;;;;;;40.63;20.38;;;;;;;-1.75;100.00;103147.09;5032218;28;20270;-49
2023/01/25 10:47:15;;;;;;;41.88;21.70;;;;;;;-1.73;100.00;103143.75;5033136;28;20195;-49
2023/01/25 10:49:46;;;;;;;39.88;21.30;;;;;;;-1.67;100.00;103144.03;5031387;28;20188;-49
2023/01/25 10:52:15;;;;;;;44.53;22.75;;;;;;;-1.87;100.00;103129.00;5032473;28;20175;-47
2023/01/25 10:54:41;;;;;;;41.20;21.33;;;;;;;-1.73;100.00;103146.38;5012315;28;20215;-47
2023/01/25 10:57:11;;;;;;;44.08;22.20;;;;;;;-1.82;100.00;103134.50;5032016;28;20200;-46
2023/01/25 10:59:37;;;;;;;45.65;21.95;;;;;;;-1.82;100.00;103127.50;5031619;28;20204;-45
2023/01/25 11:02:44;;;;;;;41.53;22.70;;;;;;;-1.73;100.00;103129.69;5031617;28;20639;-47
2023/01/25 11:05:24;;;;;;;39.95;21.60;;;;;;;-1.80;100.00;103122.34;5028530;28;20357;-47
2023/01/25 11:07:50;;;;;;;42.75;23.90;;;;;;;-2.10;100.00;103120.88;5031368;28;20281;-48
2023/01/25 11:10:32;;;;;;;40.30;23.70;;;;;;;-2.09;100.00;103114.81;5031445;28;20180;-48
2023/01/25 11:13:18;;;;;;;41.95;23.58;;;;;;;-2.05;100.00;103112.34;5031964;28;20229;-49
2023/01/25 11:16:15;;;;;;;43.22;24.45;;;;;;;-1.98;100.00;103096.06;5030984;28;20539;-49
2023/01/25 11:18:50;;;;;;;44.47;24.92;;;;;;;-1.94;100.00;103108.53;5030598;28;20596;-48